sensor_id;sensor_type;location;lat;lon;timestamp;pressure;altitude;pressure_sealevel;temperature;humidity
37878;BME280;23715;53.652;8.516;2023-08-20T00:02:24;102217.67;;;20.34;100.00
37878;BME280;23715;53.652;8.516;2023-08-20T00:07:25;102235.76;;;20.35;100.00
37878;BME280;23715;53.652;8.516;2023-08-20T00:12:26;102226.81;;;20.55;100.00
37878;BME280;23715;53.652;8.516;2023-08-20T00:17:26;102229.41;;;20.26;100.00
37878;BME280;23715;53.652;8.516;2023-08-20T00:22:27;102243.80;;;20.11;100.00
37878;BME280;23715;53.652;8.516;2023-08-20T00:27:28;102244.33;;;20.10;100.00
37878;BME280;23715;53.652;8.516;2023-08-20T00:32:28;102229.87;;;20.22;100.00
37878;BME280;23715;53.652;8.516;2023-08-20T00:37:29;102224.44;;;20.26;100.00
37878;BME280;23715;53.652;8.516;2023-08-20T00:42:30;102207.32;;;20.16;100.00
37878;BME280;23715;53.652;8.516;2023-08-20T00:47:30;102203.03;;;20.09;100.00
37878;BME280;23715;53.652;8.516;2023-08-20T00:52:32;102203.33;;;19.80;100.00
37878;BME280;23715;53.652;8.516;2023-08-20T00:57:33;102207.13;;;19.69;100.00
37878;BME280;23715;53.652;8.516;2023-08-20T01:02:36;102199.89;;;19.74;100.00
37878;BME280;23715;53.652;8.516;2023-08-20T01:13:09;102204.59;;;19.27;100.00
37878;BME280;23715;53.652;8.516;2023-08-20T01:18:09;102202.27;;;19.37;100.00
37878;BME280;23715;53.652;8.516;2023-08-20T01:28:27;102206.05;;;18.76;100.00
37878;BME280;23715;53.652;8.516;2023-08-20T01:33:28;102217.80;;;18.86;100.00
37878;BME280;23715;53.652;8.516;2023-08-20T01:38:30;102221.39;;;18.36;100.00
37878;BME280;23715;53.652;8.516;2023-08-20T01:43:31;102243.17;;;18.59;100.00
37878;BME280;23715;53.652;8.516;2023-08-20T01:48:32;102241.38;;;18.68;100.00
37878;BME280;23715;53.652;8.516;2023-08-20T01:53:32;102259.42;;;18.92;100.00
37878;BME280;23715;53.652;8.516;2023-08-20T01:58:33;102277.89;;;18.99;100.00
37878;BME280;23715;53.652;8.516;2023-08-20T02:03:36;102283.47;;;18.69;100.00
37878;BME280;23715;53.652;8.516;2023-08-20T02:08:38;102299.12;;;19.05;100.00
37878;BME280;23715;53.652;8.516;2023-08-20T02:13:37;102298.17;;;19.14;100.00
37878;BME280;23715;53.652;8.516;2023-08-20T02:18:38;102297.91;;;18.89;100.00
37878;BME280;23715;53.652;8.516;2023-08-20T02:23:38;102294.23;;;18.71;100.00
37878;BME280;23715;53.652;8.516;2023-08-20T02:28:38;102279.91;;;18.45;100.00
37878;BME280;23715;53.652;8.516;2023-08-20T02:33:39;102283.38;;;18.61;100.00
37878;BME280;23715;53.652;8.516;2023-08-20T02:38:39;102271.88;;;18.67;100.00
37878;BME280;23715;53.652;8.516;2023-08-20T02:43:40;102270.89;;;18.96;100.00
37878;BME280;23715;53.652;8.516;2023-08-20T02:48:40;102256.98;;;18.76;100.00
37878;BME280;23715;53.652;8.516;2023-08-20T02:53:41;102251.44;;;18.30;100.00
37878;BME280;23715;53.652;8.516;2023-08-20T02:58:41;102252.64;;;18.18;100.00
37878;BME280;23715;53.652;8.516;2023-08-20T03:03:41;102254.73;;;18.47;100.00
37878;BME280;23715;53.652;8.516;2023-08-20T03:08:42;102249.99;;;18.49;100.00
37878;BME280;23715;53.652;8.516;2023-08-20T03:13:42;102242.14;;;18.23;100.00
37878;BME280;23715;53.652;8.516;2023-08-20T03:18:42;102255.47;;;17.92;100.00
37878;BME280;23715;53.652;8.516;2023-08-20T03:23:43;102245.46;;;17.93;100.00
37878;BME280;23715;53.652;8.516;2023-08-20T03:28:43;102250.11;;;17.58;100.00
37878;BME280;23715;53.652;8.516;2023-08-20T03:33:43;102258.13;;;17.59;100.00
37878;BME280;23715;53.652;8.516;2023-08-20T03:38:45;102254.84;;;17.85;100.00
37878;BME280;23715;53.652;8.516;2023-08-20T03:43:45;102245.74;;;17.70;100.00
37878;BME280;23715;53.652;8.516;2023-08-20T03:48:45;102253.53;;;17.69;100.00
37878;BME280;23715;53.652;8.516;2023-08-20T03:53:46;102253.18;;;17.78;100.00
37878;BME280;23715;53.652;8.516;2023-08-20T03:58:46;102254.12;;;17.63;100.00
37878;BME280;23715;53.652;8.516;2023-08-20T04:03:47;102245.74;;;17.70;100.00
37878;BME280;23715;53.652;8.516;2023-08-20T04:08:47;102241.66;;;17.90;100.00
37878;BME280;23715;53.652;8.516;2023-08-20T04:13:48;102226.62;;;17.56;100.00
37878;BME280;23715;53.652;8.516;2023-08-20T04:18:48;102227.86;;;17.29;100.00
37878;BME280;23715;53.652;8.516;2023-08-20T04:23:49;102236.35;;;17.20;100.00
37878;BME280;23715;53.652;8.516;2023-08-20T04:28:49;102253.17;;;17.20;100.00
37878;BME280;23715;53.652;8.516;2023-08-20T04:33:49;102265.44;;;17.68;100.00
37878;BME280;23715;53.652;8.516;2023-08-20T04:38:51;102252.55;;;17.70;100.00
37878;BME280;23715;53.652;8.516;2023-08-20T04:43:53;102248.75;;;17.58;100.00
37878;BME280;23715;53.652;8.516;2023-08-20T04:48:54;102252.97;;;17.56;100.00
37878;BME280;23715;53.652;8.516;2023-08-20T04:53:55;102254.24;;;17.71;100.00
37878;BME280;23715;53.652;8.516;2023-08-20T04:58:55;102263.61;;;17.83;100.00
37878;BME280;23715;53.652;8.516;2023-08-20T05:04:03;102267.72;;;17.63;100.00
37878;BME280;23715;53.652;8.516;2023-08-20T05:09:05;102280.03;;;17.87;100.00
37878;BME280;23715;53.652;8.516;2023-08-20T05:14:08;102301.55;;;18.13;100.00
37878;BME280;23715;53.652;8.516;2023-08-20T05:19:10;102312.77;;;18.34;100.00
37878;BME280;23715;53.652;8.516;2023-08-20T05:24:11;102306.02;;;18.62;100.00
37878;BME280;23715;53.652;8.516;2023-08-20T05:29:12;102315.88;;;18.82;100.00
37878;BME280;23715;53.652;8.516;2023-08-20T05:34:12;102315.06;;;19.00;100.00
37878;BME280;23715;53.652;8.516;2023-08-20T05:39:12;102319.44;;;19.24;100.00
37878;BME280;23715;53.652;8.516;2023-08-20T05:44:13;102313.41;;;19.48;100.00
37878;BME280;23715;53.652;8.516;2023-08-20T05:49:14;102307.77;;;19.82;100.00
37878;BME280;23715;53.652;8.516;2023-08-20T05:54:19;102307.23;;;20.00;100.00
37878;BME280;23715;53.652;8.516;2023-08-20T05:59:21;102307.53;;;20.15;100.00
37878;BME280;23715;53.652;8.516;2023-08-20T06:04:21;102313.19;;;20.22;100.00
37878;BME280;23715;53.652;8.516;2023-08-20T06:09:22;102308.00;;;20.37;100.00
37878;BME280;23715;53.652;8.516;2023-08-20T06:14:22;102306.81;;;20.39;100.00
37878;BME280;23715;53.652;8.516;2023-08-20T06:19:23;102301.81;;;20.57;100.00
37878;BME280;23715;53.652;8.516;2023-08-20T06:24:23;102294.09;;;20.52;100.00
37878;BME280;23715;53.652;8.516;2023-08-20T06:29:23;102291.20;;;20.54;100.00
37878;BME280;23715;53.652;8.516;2023-08-20T06:34:24;102284.62;;;20.60;100.00
37878;BME280;23715;53.652;8.516;2023-08-20T06:39:24;102287.36;;;20.64;100.00
37878;BME280;23715;53.652;8.516;2023-08-20T06:44:24;102294.08;;;20.78;100.00
37878;BME280;23715;53.652;8.516;2023-08-20T06:49:24;102289.80;;;20.72;100.00
37878;BME280;23715;53.652;8.516;2023-08-20T06:54:24;102287.13;;;20.92;100.00
37878;BME280;23715;53.652;8.516;2023-08-20T06:59:24;102292.82;;;21.07;100.00
37878;BME280;23715;53.652;8.516;2023-08-20T07:04:24;102297.66;;;21.17;100.00
37878;BME280;23715;53.652;8.516;2023-08-20T07:09:25;102304.75;;;21.44;100.00
37878;BME280;23715;53.652;8.516;2023-08-20T07:14:24;102303.22;;;21.58;100.00
37878;BME280;23715;53.652;8.516;2023-08-20T07:19:25;102308.05;;;21.69;100.00
37878;BME280;23715;53.652;8.516;2023-08-20T07:24:25;102302.72;;;22.00;100.00
37878;BME280;23715;53.652;8.516;2023-08-20T07:29:27;102307.19;;;22.01;100.00
37878;BME280;23715;53.652;8.516;2023-08-20T07:34:30;102301.17;;;22.10;100.00
37878;BME280;23715;53.652;8.516;2023-08-20T07:39:34;102309.77;;;22.27;100.00
37878;BME280;23715;53.652;8.516;2023-08-20T07:44:34;102304.45;;;22.26;100.00
37878;BME280;23715;53.652;8.516;2023-08-20T07:49:34;102306.63;;;22.38;100.00
37878;BME280;23715;53.652;8.516;2023-08-20T07:54:34;102310.77;;;22.30;100.00
37878;BME280;23715;53.652;8.516;2023-08-20T07:59:34;102316.07;;;22.36;100.00
37878;BME280;23715;53.652;8.516;2023-08-20T08:04:35;102316.89;;;22.53;100.00
37878;BME280;23715;53.652;8.516;2023-08-20T08:09:35;102318.84;;;22.84;100.00
37878;BME280;23715;53.652;8.516;2023-08-20T08:14:36;102323.05;;;23.07;100.00
37878;BME280;23715;53.652;8.516;2023-08-20T08:19:35;102320.53;;;23.32;100.00
37878;BME280;23715;53.652;8.516;2023-08-20T08:24:35;102326.22;;;23.54;100.00
37878;BME280;23715;53.652;8.516;2023-08-20T08:29:36;102318.83;;;23.58;100.00
37878;BME280;23715;53.652;8.516;2023-08-20T08:34:36;102320.44;;;23.49;100.00
37878;BME280;23715;53.652;8.516;2023-08-20T08:39:36;102318.47;;;23.57;100.00
37878;BME280;23715;53.652;8.516;2023-08-20T08:44:37;102317.92;;;23.89;100.00
37878;BME280;23715;53.652;8.516;2023-08-20T08:49:38;102314.28;;;23.70;100.00
37878;BME280;23715;53.652;8.516;2023-08-20T08:54:38;102315.94;;;23.75;100.00
37878;BME280;23715;53.652;8.516;2023-08-20T08:59:41;102310.39;;;23.87;100.00
37878;BME280;23715;53.652;8.516;2023-08-20T09:04:42;102302.23;;;23.71;100.00
37878;BME280;23715;53.652;8.516;2023-08-20T09:09:44;102304.99;;;23.94;100.00
37878;BME280;23715;53.652;8.516;2023-08-20T09:14:49;102300.09;;;24.23;100.00
37878;BME280;23715;53.652;8.516;2023-08-20T09:19:54;102292.33;;;24.27;100.00
37878;BME280;23715;53.652;8.516;2023-08-20T09:24:56;102300.83;;;24.36;100.00
37878;BME280;23715;53.652;8.516;2023-08-20T09:29:59;102307.47;;;24.42;100.00
37878;BME280;23715;53.652;8.516;2023-08-20T09:34:59;102308.50;;;24.41;100.00
37878;BME280;23715;53.652;8.516;2023-08-20T09:39:59;102297.25;;;24.65;100.00
37878;BME280;23715;53.652;8.516;2023-08-20T09:44:59;102298.67;;;24.76;100.00
37878;BME280;23715;53.652;8.516;2023-08-20T09:50:02;102302.17;;;24.70;100.00
37878;BME280;23715;53.652;8.516;2023-08-20T09:55:09;102302.14;;;24.59;100.00
37878;BME280;23715;53.652;8.516;2023-08-20T10:00:11;102293.02;;;24.73;100.00
37878;BME280;23715;53.652;8.516;2023-08-20T10:05:13;102288.63;;;24.94;100.00
37878;BME280;23715;53.652;8.516;2023-08-20T10:10:14;102297.84;;;24.86;100.00
37878;BME280;23715;53.652;8.516;2023-08-20T10:15:23;102289.53;;;24.90;100.00
37878;BME280;23715;53.652;8.516;2023-08-20T10:52:54;102297.81;;;25.63;100.00
37878;BME280;23715;53.652;8.516;2023-08-20T10:57:59;102307.47;;;25.27;100.00
37878;BME280;23715;53.652;8.516;2023-08-20T11:03:03;102300.44;;;25.50;100.00
37878;BME280;23715;53.652;8.516;2023-08-20T11:08:03;102300.00;;;24.80;100.00
37878;BME280;23715;53.652;8.516;2023-08-20T11:13:06;102307.53;;;25.08;100.00
37878;BME280;23715;53.652;8.516;2023-08-20T11:18:07;102308.90;;;24.97;100.00
37878;BME280;23715;53.652;8.516;2023-08-20T11:23:08;102316.70;;;24.45;100.00
37878;BME280;23715;53.652;8.516;2023-08-20T11:28:09;102320.77;;;24.68;100.00
37878;BME280;23715;53.652;8.516;2023-08-20T11:33:13;102315.67;;;24.90;100.00
37878;BME280;23715;53.652;8.516;2023-08-20T11:38:14;102312.44;;;25.64;100.00
37878;BME280;23715;53.652;8.516;2023-08-20T11:43:14;102314.84;;;25.63;100.00
37878;BME280;23715;53.652;8.516;2023-08-20T11:48:17;102319.75;;;24.50;100.00
37878;BME280;23715;53.652;8.516;2023-08-20T11:53:22;102317.32;;;25.36;100.00
37878;BME280;23715;53.652;8.516;2023-08-20T11:58:22;102316.23;;;25.74;100.00
37878;BME280;23715;53.652;8.516;2023-08-20T12:03:29;102306.12;;;26.02;100.00
37878;BME280;23715;53.652;8.516;2023-08-20T12:08:37;102302.14;;;26.05;100.00
37878;BME280;23715;53.652;8.516;2023-08-20T12:13:33;102306.45;;;25.39;100.00
37878;BME280;23715;53.652;8.516;2023-08-20T12:18:35;102303.83;;;25.74;100.00
37878;BME280;23715;53.652;8.516;2023-08-20T12:23:35;102303.83;;;25.74;100.00
37878;BME280;23715;53.652;8.516;2023-08-20T12:28:36;102300.62;;;25.70;100.00
37878;BME280;23715;53.652;8.516;2023-08-20T12:33:40;102295.12;;;25.48;100.00
37878;BME280;23715;53.652;8.516;2023-08-20T12:38:40;102290.05;;;25.95;100.00
37878;BME280;23715;53.652;8.516;2023-08-20T12:43:48;102289.33;;;26.25;100.00
37878;BME280;23715;53.652;8.516;2023-08-20T12:48:44;102295.63;;;26.13;100.00
37878;BME280;23715;53.652;8.516;2023-08-20T12:53:44;102292.59;;;26.53;100.00
37878;BME280;23715;53.652;8.516;2023-08-20T12:58:47;102292.91;;;26.37;100.00
37878;BME280;23715;53.652;8.516;2023-08-20T13:03:53;102291.77;;;25.96;100.00
37878;BME280;23715;53.652;8.516;2023-08-20T13:08:49;102282.55;;;26.56;100.00
37878;BME280;23715;53.652;8.516;2023-08-20T13:13:51;102285.53;;;26.26;100.00
37878;BME280;23715;53.652;8.516;2023-08-20T13:18:54;102287.75;;;26.27;100.00
37878;BME280;23715;53.652;8.516;2023-08-20T13:23:54;102293.72;;;26.02;100.00
37878;BME280;23715;53.652;8.516;2023-08-20T13:28:54;102302.45;;;26.06;100.00
37878;BME280;23715;53.652;8.516;2023-08-20T13:33:54;102310.12;;;25.57;100.00
37878;BME280;23715;53.652;8.516;2023-08-20T13:38:54;102313.02;;;25.81;100.00
37878;BME280;23715;53.652;8.516;2023-08-20T13:43:55;102301.80;;;26.04;100.00
37878;BME280;23715;53.652;8.516;2023-08-20T13:48:55;102317.41;;;26.18;100.00
37878;BME280;23715;53.652;8.516;2023-08-20T13:53:56;102313.29;;;25.86;100.00
37878;BME280;23715;53.652;8.516;2023-08-20T13:58:57;102317.91;;;26.18;100.00
37878;BME280;23715;53.652;8.516;2023-08-20T14:03:59;102318.20;;;25.90;100.00
37878;BME280;23715;53.652;8.516;2023-08-20T14:08:59;102323.70;;;26.12;100.00
37878;BME280;23715;53.652;8.516;2023-08-20T14:14:00;102328.72;;;26.02;100.00
37878;BME280;23715;53.652;8.516;2023-08-20T14:19:00;102323.39;;;26.11;100.00
37878;BME280;23715;53.652;8.516;2023-08-20T14:24:00;102303.69;;;25.49;100.00
37878;BME280;23715;53.652;8.516;2023-08-20T14:29:00;102322.81;;;25.94;100.00
37878;BME280;23715;53.652;8.516;2023-08-20T14:34:01;102322.81;;;25.73;100.00
37878;BME280;23715;53.652;8.516;2023-08-20T14:39:05;102317.87;;;26.00;100.00
37878;BME280;23715;53.652;8.516;2023-08-20T14:44:05;102318.80;;;26.07;100.00
37878;BME280;23715;53.652;8.516;2023-08-20T14:49:06;102318.88;;;25.93;100.00
37878;BME280;23715;53.652;8.516;2023-08-20T14:54:06;102321.14;;;25.89;100.00
37878;BME280;23715;53.652;8.516;2023-08-20T14:59:06;102327.50;;;25.89;100.00
37878;BME280;23715;53.652;8.516;2023-08-20T15:04:08;102322.84;;;26.22;100.00
37878;BME280;23715;53.652;8.516;2023-08-20T15:09:09;102317.00;;;26.67;100.00
37878;BME280;23715;53.652;8.516;2023-08-20T15:14:12;102310.12;;;26.91;100.00
37878;BME280;23715;53.652;8.516;2023-08-20T15:19:12;102306.30;;;26.40;100.00
37878;BME280;23715;53.652;8.516;2023-08-20T15:24:13;102307.70;;;26.75;100.00
37878;BME280;23715;53.652;8.516;2023-08-20T15:29:12;102308.25;;;26.46;100.00
37878;BME280;23715;53.652;8.516;2023-08-20T15:34:12;102305.38;;;26.43;100.00
37878;BME280;23715;53.652;8.516;2023-08-20T15:39:13;102307.20;;;26.01;100.00
37878;BME280;23715;53.652;8.516;2023-08-20T15:44:13;102299.69;;;26.06;100.00
37878;BME280;23715;53.652;8.516;2023-08-20T15:49:14;102302.75;;;26.18;100.00
37878;BME280;23715;53.652;8.516;2023-08-20T15:54:14;102304.22;;;25.81;100.00
37878;BME280;23715;53.652;8.516;2023-08-20T15:59:14;102300.09;;;25.49;100.00
37878;BME280;23715;53.652;8.516;2023-08-20T16:04:15;102308.16;;;25.83;100.00
37878;BME280;23715;53.652;8.516;2023-08-20T16:09:15;102392.54;;;25.73;100.00
37878;BME280;23715;53.652;8.516;2023-08-20T16:14:16;102297.80;;;25.16;100.00
37878;BME280;23715;53.652;8.516;2023-08-20T16:19:16;102295.05;;;25.16;100.00
37878;BME280;23715;53.652;8.516;2023-08-20T16:24:22;102300.23;;;25.41;100.00
37878;BME280;23715;53.652;8.516;2023-08-20T16:29:23;102301.42;;;25.75;100.00
37878;BME280;23715;53.652;8.516;2023-08-20T16:34:24;102292.70;;;25.71;100.00
37878;BME280;23715;53.652;8.516;2023-08-20T16:39:24;102299.20;;;25.27;100.00
37878;BME280;23715;53.652;8.516;2023-08-20T16:44:24;102286.14;;;25.61;100.00
37878;BME280;23715;53.652;8.516;2023-08-20T16:49:25;102288.60;;;25.24;100.00
37878;BME280;23715;53.652;8.516;2023-08-20T16:54:26;102294.08;;;24.98;100.00
37878;BME280;23715;53.652;8.516;2023-08-20T16:59:26;102299.23;;;24.71;100.00
37878;BME280;23715;53.652;8.516;2023-08-20T17:04:25;102296.98;;;25.11;100.00
37878;BME280;23715;53.652;8.516;2023-08-20T17:09:27;102310.44;;;24.51;100.00
37878;BME280;23715;53.652;8.516;2023-08-20T17:14:29;102313.05;;;24.67;100.00
37878;BME280;23715;53.652;8.516;2023-08-20T17:19:34;102313.81;;;24.76;100.00
37878;BME280;23715;53.652;8.516;2023-08-20T17:24:34;102318.65;;;24.59;100.00
37878;BME280;23715;53.652;8.516;2023-08-20T17:29:34;102319.13;;;24.63;100.00
37878;BME280;23715;53.652;8.516;2023-08-20T17:34:36;102317.94;;;24.76;100.00
37878;BME280;23715;53.652;8.516;2023-08-20T17:39:36;102317.70;;;24.82;100.00
37878;BME280;23715;53.652;8.516;2023-08-20T17:44:36;102309.20;;;24.87;100.00
37878;BME280;23715;53.652;8.516;2023-08-20T17:49:37;102297.12;;;24.78;100.00
37878;BME280;23715;53.652;8.516;2023-08-20T17:54:37;102306.88;;;24.31;100.00
37878;BME280;23715;53.652;8.516;2023-08-20T17:59:39;102306.52;;;24.68;100.00
37878;BME280;23715;53.652;8.516;2023-08-20T18:04:39;102302.62;;;24.63;100.00
37878;BME280;23715;53.652;8.516;2023-08-20T18:09:41;102297.66;;;24.24;100.00
37878;BME280;23715;53.652;8.516;2023-08-20T18:14:41;102309.55;;;24.02;100.00
37878;BME280;23715;53.652;8.516;2023-08-20T18:19:42;102311.45;;;23.78;100.00
37878;BME280;23715;53.652;8.516;2023-08-20T18:24:42;102318.77;;;23.90;100.00
37878;BME280;23715;53.652;8.516;2023-08-20T18:29:44;102314.20;;;23.82;100.00
37878;BME280;23715;53.652;8.516;2023-08-20T18:34:44;102316.85;;;23.67;100.00
37878;BME280;23715;53.652;8.516;2023-08-20T18:39:47;102323.71;;;23.71;100.00
37878;BME280;23715;53.652;8.516;2023-08-20T18:44:48;102334.72;;;23.40;100.00
37878;BME280;23715;53.652;8.516;2023-08-20T18:49:48;102336.70;;;23.54;100.00
37878;BME280;23715;53.652;8.516;2023-08-20T18:54:49;102342.90;;;23.52;100.00
37878;BME280;23715;53.652;8.516;2023-08-20T18:59:53;102345.14;;;23.45;100.00
37878;BME280;23715;53.652;8.516;2023-08-20T19:04:51;102357.70;;;23.39;100.00
37878;BME280;23715;53.652;8.516;2023-08-20T19:09:55;102364.30;;;23.30;100.00
37878;BME280;23715;53.652;8.516;2023-08-20T19:14:56;102369.48;;;23.21;100.00
37878;BME280;23715;53.652;8.516;2023-08-20T19:19:56;102382.79;;;23.36;100.00
37878;BME280;23715;53.652;8.516;2023-08-20T19:25:06;102379.32;;;23.42;100.00
37878;BME280;23715;53.652;8.516;2023-08-20T19:30:07;102387.14;;;23.18;100.00
37878;BME280;23715;53.652;8.516;2023-08-20T19:35:08;102395.56;;;23.21;100.00
37878;BME280;23715;53.652;8.516;2023-08-20T19:40:09;102408.47;;;22.99;100.00
37878;BME280;23715;53.652;8.516;2023-08-20T19:45:10;102411.15;;;23.20;100.00
37878;BME280;23715;53.652;8.516;2023-08-20T19:50:11;102412.41;;;23.09;100.00
37878;BME280;23715;53.652;8.516;2023-08-20T19:55:11;102409.16;;;22.93;100.00
37878;BME280;23715;53.652;8.516;2023-08-20T20:00:13;102412.56;;;23.12;100.00
37878;BME280;23715;53.652;8.516;2023-08-20T20:05:15;102407.27;;;23.06;100.00
37878;BME280;23715;53.652;8.516;2023-08-20T20:10:16;102407.27;;;23.06;100.00
37878;BME280;23715;53.652;8.516;2023-08-20T20:15:16;102397.69;;;22.86;100.00
37878;BME280;23715;53.652;8.516;2023-08-20T20:20:16;102397.69;;;22.86;100.00
37878;BME280;23715;53.652;8.516;2023-08-20T20:25:16;102412.50;;;22.60;100.00
37878;BME280;23715;53.652;8.516;2023-08-20T20:30:16;102427.73;;;22.67;100.00
37878;BME280;23715;53.652;8.516;2023-08-20T20:35:17;102426.03;;;22.49;100.00
37878;BME280;23715;53.652;8.516;2023-08-20T20:40:17;102431.02;;;22.33;100.00
37878;BME280;23715;53.652;8.516;2023-08-20T20:45:18;102446.79;;;22.27;100.00
37878;BME280;23715;53.652;8.516;2023-08-20T20:50:19;102451.20;;;22.16;100.00
37878;BME280;23715;53.652;8.516;2023-08-20T20:55:19;102458.05;;;22.24;100.00
37878;BME280;23715;53.652;8.516;2023-08-20T21:00:19;102463.00;;;22.12;100.00
37878;BME280;23715;53.652;8.516;2023-08-20T21:05:20;102458.92;;;22.33;100.00
37878;BME280;23715;53.652;8.516;2023-08-20T21:10:20;102466.98;;;22.30;100.00
37878;BME280;23715;53.652;8.516;2023-08-20T21:15:20;102470.77;;;22.29;100.00
37878;BME280;23715;53.652;8.516;2023-08-20T21:20:20;102475.55;;;22.48;100.00
37878;BME280;23715;53.652;8.516;2023-08-20T21:25:20;102468.02;;;22.33;100.00
37878;BME280;23715;53.652;8.516;2023-08-20T21:30:20;102475.23;;;22.43;100.00
37878;BME280;23715;53.652;8.516;2023-08-20T21:35:22;102472.29;;;22.44;100.00
37878;BME280;23715;53.652;8.516;2023-08-20T21:40:23;102466.46;;;22.27;100.00
37878;BME280;23715;53.652;8.516;2023-08-20T21:45:22;102466.43;;;22.22;100.00
37878;BME280;23715;53.652;8.516;2023-08-20T21:50:23;102462.12;;;22.12;100.00
37878;BME280;23715;53.652;8.516;2023-08-20T21:55:23;102466.38;;;21.86;100.00
37878;BME280;23715;53.652;8.516;2023-08-20T22:00:22;102470.97;;;21.81;100.00
37878;BME280;23715;53.652;8.516;2023-08-20T22:05:23;102472.84;;;21.72;100.00
37878;BME280;23715;53.652;8.516;2023-08-20T22:10:24;102471.63;;;21.67;100.00
37878;BME280;23715;53.652;8.516;2023-08-20T22:15:24;102465.79;;;21.66;100.00
37878;BME280;23715;53.652;8.516;2023-08-20T22:20:24;102468.84;;;21.58;100.00
37878;BME280;23715;53.652;8.516;2023-08-20T22:25:24;102466.45;;;21.55;100.00
37878;BME280;23715;53.652;8.516;2023-08-20T22:30:51;102466.78;;;21.56;100.00
37878;BME280;23715;53.652;8.516;2023-08-20T22:35:50;102466.61;;;21.54;100.00
37878;BME280;23715;53.652;8.516;2023-08-20T22:40:51;102459.63;;;21.29;100.00
37878;BME280;23715;53.652;8.516;2023-08-20T22:45:52;102448.69;;;21.29;100.00
37878;BME280;23715;53.652;8.516;2023-08-20T22:50:53;102454.98;;;21.25;100.00
37878;BME280;23715;53.652;8.516;2023-08-20T22:55:53;102447.77;;;21.20;100.00
37878;BME280;23715;53.652;8.516;2023-08-20T23:00:54;102437.87;;;20.89;100.00
37878;BME280;23715;53.652;8.516;2023-08-20T23:05:54;102441.74;;;20.82;100.00
37878;BME280;23715;53.652;8.516;2023-08-20T23:10:55;102432.19;;;20.86;100.00
37878;BME280;23715;53.652;8.516;2023-08-20T23:15:55;102426.39;;;20.85;100.00
37878;BME280;23715;53.652;8.516;2023-08-20T23:21:02;102433.83;;;20.75;100.00
37878;BME280;23715;53.652;8.516;2023-08-20T23:25:58;102428.80;;;20.62;100.00
37878;BME280;23715;53.652;8.516;2023-08-20T23:30:59;102427.46;;;20.26;100.00
37878;BME280;23715;53.652;8.516;2023-08-20T23:36:03;102426.30;;;20.11;100.00
37878;BME280;23715;53.652;8.516;2023-08-20T23:41:03;102424.85;;;20.21;100.00
37878;BME280;23715;53.652;8.516;2023-08-20T23:46:03;102426.25;;;19.89;100.00
37878;BME280;23715;53.652;8.516;2023-08-20T23:51:03;102426.25;;;19.89;100.00
37878;BME280;23715;53.652;8.516;2023-08-20T23:56:03;102436.20;;;19.66;100.00
